sensor_id;sensor_type;location;lat;lon;timestamp;temperature;humidity
68912;SHT31;55953;51.650;-0.522;2023-07-24T00:02:03;16.71;79.46
68912;SHT31;55953;51.650;-0.522;2023-07-24T00:04:31;16.70;79.62
68912;SHT31;55953;51.650;-0.522;2023-07-24T00:07:00;16.68;79.60
68912;SHT31;55953;51.650;-0.522;2023-07-24T00:09:28;16.67;79.69
68912;SHT31;55953;51.650;-0.522;2023-07-24T00:11:56;16.63;79.86
68912;SHT31;55953;51.650;-0.522;2023-07-24T00:14:24;16.58;79.91
68912;SHT31;55953;51.650;-0.522;2023-07-24T00:16:52;16.58;79.92
68912;SHT31;55953;51.650;-0.522;2023-07-24T00:19:20;16.57;79.96
68912;SHT31;55953;51.650;-0.522;2023-07-24T00:21:48;16.56;80.18
68912;SHT31;55953;51.650;-0.522;2023-07-24T00:24:16;16.55;80.11
68912;SHT31;55953;51.650;-0.522;2023-07-24T00:26:44;16.58;80.10
68912;SHT31;55953;51.650;-0.522;2023-07-24T00:29:12;16.59;80.02
68912;SHT31;55953;51.650;-0.522;2023-07-24T00:31:39;16.59;80.13
68912;SHT31;55953;51.650;-0.522;2023-07-24T00:34:09;16.57;80.08
68912;SHT31;55953;51.650;-0.522;2023-07-24T00:36:37;16.52;80.14
68912;SHT31;55953;51.650;-0.522;2023-07-24T00:39:06;16.48;80.38
68912;SHT31;55953;51.650;-0.522;2023-07-24T00:41:34;16.45;80.48
68912;SHT31;55953;51.650;-0.522;2023-07-24T00:44:02;16.45;80.58
68912;SHT31;55953;51.650;-0.522;2023-07-24T00:46:30;16.46;80.64
68912;SHT31;55953;51.650;-0.522;2023-07-24T00:49:00;16.45;80.79
68912;SHT31;55953;51.650;-0.522;2023-07-24T00:51:32;16.45;80.87
68912;SHT31;55953;51.650;-0.522;2023-07-24T00:54:02;16.45;80.74
68912;SHT31;55953;51.650;-0.522;2023-07-24T00:56:33;16.42;80.93
68912;SHT31;55953;51.650;-0.522;2023-07-24T00:59:01;16.44;80.95
68912;SHT31;55953;51.650;-0.522;2023-07-24T01:01:29;16.47;80.93
68912;SHT31;55953;51.650;-0.522;2023-07-24T01:03:57;16.48;80.93
68912;SHT31;55953;51.650;-0.522;2023-07-24T01:06:25;16.47;80.87
68912;SHT31;55953;51.650;-0.522;2023-07-24T01:08:54;16.43;81.12
68912;SHT31;55953;51.650;-0.522;2023-07-24T01:11:27;16.42;81.13
68912;SHT31;55953;51.650;-0.522;2023-07-24T01:16:54;16.42;81.07
68912;SHT31;55953;51.650;-0.522;2023-07-24T01:22:14;16.42;81.23
68912;SHT31;55953;51.650;-0.522;2023-07-24T01:25:00;16.53;81.02
68912;SHT31;55953;51.650;-0.522;2023-07-24T01:27:44;16.65;80.59
68912;SHT31;55953;51.650;-0.522;2023-07-24T01:30:16;16.69;80.49
68912;SHT31;55953;51.650;-0.522;2023-07-24T01:32:47;16.70;80.46
68912;SHT31;55953;51.650;-0.522;2023-07-24T01:35:17;16.68;80.47
68912;SHT31;55953;51.650;-0.522;2023-07-24T01:37:45;16.65;80.66
68912;SHT31;55953;51.650;-0.522;2023-07-24T01:40:14;16.68;80.66
68912;SHT31;55953;51.650;-0.522;2023-07-24T01:42:43;16.69;80.52
68912;SHT31;55953;51.650;-0.522;2023-07-24T01:45:10;16.65;80.53
68912;SHT31;55953;51.650;-0.522;2023-07-24T01:47:38;16.62;80.54
68912;SHT31;55953;51.650;-0.522;2023-07-24T01:50:07;16.60;80.50
68912;SHT31;55953;51.650;-0.522;2023-07-24T01:52:35;16.63;80.48
68912;SHT31;55953;51.650;-0.522;2023-07-24T01:55:03;16.62;80.36
68912;SHT31;55953;51.650;-0.522;2023-07-24T01:57:31;16.59;80.28
68912;SHT31;55953;51.650;-0.522;2023-07-24T01:59:59;16.53;80.32
68912;SHT31;55953;51.650;-0.522;2023-07-24T02:02:27;16.43;80.55
68912;SHT31;55953;51.650;-0.522;2023-07-24T02:04:55;16.33;80.74
68912;SHT31;55953;51.650;-0.522;2023-07-24T02:07:23;16.32;80.66
68912;SHT31;55953;51.650;-0.522;2023-07-24T02:09:50;16.22;80.64
68912;SHT31;55953;51.650;-0.522;2023-07-24T02:12:18;16.10;80.86
68912;SHT31;55953;51.650;-0.522;2023-07-24T02:14:46;16.01;81.02
68912;SHT31;55953;51.650;-0.522;2023-07-24T02:17:19;15.94;81.10
68912;SHT31;55953;51.650;-0.522;2023-07-24T02:19:47;15.92;81.19
68912;SHT31;55953;51.650;-0.522;2023-07-24T02:22:15;15.91;81.26
68912;SHT31;55953;51.650;-0.522;2023-07-24T02:24:43;15.90;81.24
68912;SHT31;55953;51.650;-0.522;2023-07-24T02:27:24;15.86;81.40
68912;SHT31;55953;51.650;-0.522;2023-07-24T02:29:58;15.90;81.35
68912;SHT31;55953;51.650;-0.522;2023-07-24T02:32:26;15.92;81.21
68912;SHT31;55953;51.650;-0.522;2023-07-24T02:34:54;15.91;81.30
68912;SHT31;55953;51.650;-0.522;2023-07-24T02:37:22;15.94;81.45
68912;SHT31;55953;51.650;-0.522;2023-07-24T02:39:51;15.96;81.38
68912;SHT31;55953;51.650;-0.522;2023-07-24T02:42:20;16.03;81.49
68912;SHT31;55953;51.650;-0.522;2023-07-24T02:44:48;16.10;81.28
68912;SHT31;55953;51.650;-0.522;2023-07-24T02:47:16;16.14;81.25
68912;SHT31;55953;51.650;-0.522;2023-07-24T02:49:44;16.15;81.34
68912;SHT31;55953;51.650;-0.522;2023-07-24T02:52:12;16.16;81.55
68912;SHT31;55953;51.650;-0.522;2023-07-24T02:54:39;16.14;81.54
68912;SHT31;55953;51.650;-0.522;2023-07-24T02:57:07;16.17;81.58
68912;SHT31;55953;51.650;-0.522;2023-07-24T02:59:35;16.20;81.56
68912;SHT31;55953;51.650;-0.522;2023-07-24T03:02:03;16.19;81.52
68912;SHT31;55953;51.650;-0.522;2023-07-24T03:04:31;16.18;81.74
68912;SHT31;55953;51.650;-0.522;2023-07-24T03:06:59;16.15;81.85
68912;SHT31;55953;51.650;-0.522;2023-07-24T03:09:27;16.15;81.97
68912;SHT31;55953;51.650;-0.522;2023-07-24T03:11:55;16.13;82.02
68912;SHT31;55953;51.650;-0.522;2023-07-24T03:14:24;16.17;82.14
68912;SHT31;55953;51.650;-0.522;2023-07-24T03:16:52;16.21;81.91
68912;SHT31;55953;51.650;-0.522;2023-07-24T03:19:22;16.21;82.00
68912;SHT31;55953;51.650;-0.522;2023-07-24T03:21:50;16.18;82.15
68912;SHT31;55953;51.650;-0.522;2023-07-24T03:24:18;16.17;82.20
68912;SHT31;55953;51.650;-0.522;2023-07-24T03:26:46;16.18;82.19
68912;SHT31;55953;51.650;-0.522;2023-07-24T03:29:16;16.23;81.99
68912;SHT31;55953;51.650;-0.522;2023-07-24T03:31:44;16.23;81.92
68912;SHT31;55953;51.650;-0.522;2023-07-24T03:34:12;16.24;81.92
68912;SHT31;55953;51.650;-0.522;2023-07-24T03:36:40;16.30;81.68
68912;SHT31;55953;51.650;-0.522;2023-07-24T03:39:10;16.31;81.70
68912;SHT31;55953;51.650;-0.522;2023-07-24T03:41:38;16.31;81.70
68912;SHT31;55953;51.650;-0.522;2023-07-24T03:44:08;16.29;81.74
68912;SHT31;55953;51.650;-0.522;2023-07-24T03:46:36;16.30;81.79
68912;SHT31;55953;51.650;-0.522;2023-07-24T03:49:04;16.32;81.57
68912;SHT31;55953;51.650;-0.522;2023-07-24T03:51:31;16.34;81.43
68912;SHT31;55953;51.650;-0.522;2023-07-24T03:54:00;16.33;81.49
68912;SHT31;55953;51.650;-0.522;2023-07-24T03:56:28;16.32;81.46
68912;SHT31;55953;51.650;-0.522;2023-07-24T03:58:56;16.30;81.65
68912;SHT31;55953;51.650;-0.522;2023-07-24T04:01:24;16.27;81.56
68912;SHT31;55953;51.650;-0.522;2023-07-24T04:03:52;16.25;81.61
68912;SHT31;55953;51.650;-0.522;2023-07-24T04:06:20;16.25;81.83
68912;SHT31;55953;51.650;-0.522;2023-07-24T04:08:48;16.25;81.73
68912;SHT31;55953;51.650;-0.522;2023-07-24T04:11:16;16.25;82.00
68912;SHT31;55953;51.650;-0.522;2023-07-24T04:13:44;16.25;81.80
68912;SHT31;55953;51.650;-0.522;2023-07-24T04:16:12;16.25;81.82
68912;SHT31;55953;51.650;-0.522;2023-07-24T04:18:39;16.26;81.78
68912;SHT31;55953;51.650;-0.522;2023-07-24T04:21:07;16.27;81.77
68912;SHT31;55953;51.650;-0.522;2023-07-24T04:23:35;16.30;81.88
68912;SHT31;55953;51.650;-0.522;2023-07-24T04:26:04;16.30;81.80
68912;SHT31;55953;51.650;-0.522;2023-07-24T04:28:32;16.32;81.76
68912;SHT31;55953;51.650;-0.522;2023-07-24T04:31:00;16.33;81.81
68912;SHT31;55953;51.650;-0.522;2023-07-24T04:33:30;16.33;81.78
68912;SHT31;55953;51.650;-0.522;2023-07-24T04:35:59;16.37;81.82
68912;SHT31;55953;51.650;-0.522;2023-07-24T04:38:27;16.37;81.75
68912;SHT31;55953;51.650;-0.522;2023-07-24T04:40:55;16.37;81.83
68912;SHT31;55953;51.650;-0.522;2023-07-24T04:43:22;16.36;81.66
68912;SHT31;55953;51.650;-0.522;2023-07-24T04:45:50;16.37;81.86
68912;SHT31;55953;51.650;-0.522;2023-07-24T04:48:18;16.39;81.90
68912;SHT31;55953;51.650;-0.522;2023-07-24T04:50:46;16.39;81.78
68912;SHT31;55953;51.650;-0.522;2023-07-24T04:53:14;16.43;81.70
68912;SHT31;55953;51.650;-0.522;2023-07-24T04:55:42;16.44;81.66
68912;SHT31;55953;51.650;-0.522;2023-07-24T04:58:09;16.44;81.57
68912;SHT31;55953;51.650;-0.522;2023-07-24T05:00:37;16.49;81.62
68912;SHT31;55953;51.650;-0.522;2023-07-24T05:03:05;16.61;81.45
68912;SHT31;55953;51.650;-0.522;2023-07-24T05:05:35;16.69;81.33
68912;SHT31;55953;51.650;-0.522;2023-07-24T05:08:03;16.70;81.07
68912;SHT31;55953;51.650;-0.522;2023-07-24T05:10:36;16.66;81.05
68912;SHT31;55953;51.650;-0.522;2023-07-24T05:13:03;16.66;81.23
68912;SHT31;55953;51.650;-0.522;2023-07-24T05:15:31;16.66;81.13
68912;SHT31;55953;51.650;-0.522;2023-07-24T05:17:59;16.65;81.06
68912;SHT31;55953;51.650;-0.522;2023-07-24T05:20:27;16.67;81.06
68912;SHT31;55953;51.650;-0.522;2023-07-24T05:22:55;16.69;81.12
68912;SHT31;55953;51.650;-0.522;2023-07-24T05:25:22;16.80;80.91
68912;SHT31;55953;51.650;-0.522;2023-07-24T05:27:50;16.78;80.83
68912;SHT31;55953;51.650;-0.522;2023-07-24T05:30:18;16.72;80.71
68912;SHT31;55953;51.650;-0.522;2023-07-24T05:32:46;16.74;80.76
68912;SHT31;55953;51.650;-0.522;2023-07-24T05:35:14;16.72;80.59
68912;SHT31;55953;51.650;-0.522;2023-07-24T05:37:42;16.68;80.71
68912;SHT31;55953;51.650;-0.522;2023-07-24T05:40:09;16.69;80.82
68912;SHT31;55953;51.650;-0.522;2023-07-24T05:42:37;16.72;80.92
68912;SHT31;55953;51.650;-0.522;2023-07-24T05:45:09;16.78;80.83
68912;SHT31;55953;51.650;-0.522;2023-07-24T05:47:42;16.81;80.76
68912;SHT31;55953;51.650;-0.522;2023-07-24T05:50:09;16.86;80.73
68912;SHT31;55953;51.650;-0.522;2023-07-24T05:52:38;16.93;80.40
68912;SHT31;55953;51.650;-0.522;2023-07-24T05:55:05;16.94;80.42
68912;SHT31;55953;51.650;-0.522;2023-07-24T05:57:34;16.99;80.36
68912;SHT31;55953;51.650;-0.522;2023-07-24T06:00:03;17.03;80.03
68912;SHT31;55953;51.650;-0.522;2023-07-24T06:02:37;17.07;80.15
68912;SHT31;55953;51.650;-0.522;2023-07-24T06:05:05;17.12;79.93
68912;SHT31;55953;51.650;-0.522;2023-07-24T06:07:34;17.13;79.82
68912;SHT31;55953;51.650;-0.522;2023-07-24T06:10:01;17.14;79.80
68912;SHT31;55953;51.650;-0.522;2023-07-24T06:12:30;17.13;79.59
68912;SHT31;55953;51.650;-0.522;2023-07-24T06:14:58;17.14;79.64
68912;SHT31;55953;51.650;-0.522;2023-07-24T06:17:25;17.14;79.65
68912;SHT31;55953;51.650;-0.522;2023-07-24T06:19:53;17.14;79.62
68912;SHT31;55953;51.650;-0.522;2023-07-24T06:22:21;17.10;79.51
68912;SHT31;55953;51.650;-0.522;2023-07-24T06:24:49;17.05;79.59
68912;SHT31;55953;51.650;-0.522;2023-07-24T06:27:17;17.03;79.63
68912;SHT31;55953;51.650;-0.522;2023-07-24T06:29:45;17.02;79.73
68912;SHT31;55953;51.650;-0.522;2023-07-24T06:32:13;17.01;79.72
68912;SHT31;55953;51.650;-0.522;2023-07-24T06:34:41;16.94;79.60
68912;SHT31;55953;51.650;-0.522;2023-07-24T06:37:09;16.85;79.69
68912;SHT31;55953;51.650;-0.522;2023-07-24T06:39:49;16.78;79.75
68912;SHT31;55953;51.650;-0.522;2023-07-24T06:42:17;16.70;79.62
68912;SHT31;55953;51.650;-0.522;2023-07-24T06:44:45;16.60;79.65
68912;SHT31;55953;51.650;-0.522;2023-07-24T06:47:12;16.51;79.99
68912;SHT31;55953;51.650;-0.522;2023-07-24T06:49:40;16.41;80.14
68912;SHT31;55953;51.650;-0.522;2023-07-24T06:52:08;16.31;80.47
68912;SHT31;55953;51.650;-0.522;2023-07-24T06:54:36;16.23;80.58
68912;SHT31;55953;51.650;-0.522;2023-07-24T06:57:03;16.13;80.65
68912;SHT31;55953;51.650;-0.522;2023-07-24T06:59:32;16.02;80.40
68912;SHT31;55953;51.650;-0.522;2023-07-24T07:02:00;15.97;80.58
68912;SHT31;55953;51.650;-0.522;2023-07-24T07:04:28;15.89;80.19
68912;SHT31;55953;51.650;-0.522;2023-07-24T07:06:56;15.86;80.54
68912;SHT31;55953;51.650;-0.522;2023-07-24T07:09:23;15.89;80.70
68912;SHT31;55953;51.650;-0.522;2023-07-24T07:11:51;15.88;80.48
68912;SHT31;55953;51.650;-0.522;2023-07-24T07:14:19;15.86;80.53
68912;SHT31;55953;51.650;-0.522;2023-07-24T07:16:47;15.88;80.67
68912;SHT31;55953;51.650;-0.522;2023-07-24T07:19:15;15.80;80.03
68912;SHT31;55953;51.650;-0.522;2023-07-24T07:21:43;15.72;80.06
68912;SHT31;55953;51.650;-0.522;2023-07-24T07:24:11;15.65;80.06
68912;SHT31;55953;51.650;-0.522;2023-07-24T07:26:38;15.62;80.29
68912;SHT31;55953;51.650;-0.522;2023-07-24T07:29:06;15.58;79.91
68912;SHT31;55953;51.650;-0.522;2023-07-24T07:31:34;15.58;80.18
68912;SHT31;55953;51.650;-0.522;2023-07-24T07:34:02;15.53;80.54
68912;SHT31;55953;51.650;-0.522;2023-07-24T07:36:30;15.50;80.77
68912;SHT31;55953;51.650;-0.522;2023-07-24T07:38:58;15.49;80.94
68912;SHT31;55953;51.650;-0.522;2023-07-24T07:41:26;15.46;80.84
68912;SHT31;55953;51.650;-0.522;2023-07-24T07:43:54;15.42;80.78
68912;SHT31;55953;51.650;-0.522;2023-07-24T07:46:22;15.41;80.94
68912;SHT31;55953;51.650;-0.522;2023-07-24T07:48:49;15.45;80.99
68912;SHT31;55953;51.650;-0.522;2023-07-24T07:51:18;15.47;80.79
68912;SHT31;55953;51.650;-0.522;2023-07-24T07:53:45;15.51;80.95
68912;SHT31;55953;51.650;-0.522;2023-07-24T07:56:13;15.52;80.79
68912;SHT31;55953;51.650;-0.522;2023-07-24T07:58:41;15.53;80.87
68912;SHT31;55953;51.650;-0.522;2023-07-24T08:01:09;15.60;80.77
68912;SHT31;55953;51.650;-0.522;2023-07-24T08:03:37;15.65;80.58
68912;SHT31;55953;51.650;-0.522;2023-07-24T08:06:05;15.68;80.32
68912;SHT31;55953;51.650;-0.522;2023-07-24T08:08:34;15.72;80.63
68912;SHT31;55953;51.650;-0.522;2023-07-24T08:11:05;15.79;80.21
68912;SHT31;55953;51.650;-0.522;2023-07-24T08:13:34;15.84;80.14
68912;SHT31;55953;51.650;-0.522;2023-07-24T08:16:02;15.94;79.87
68912;SHT31;55953;51.650;-0.522;2023-07-24T08:18:31;16.04;79.68
68912;SHT31;55953;51.650;-0.522;2023-07-24T08:20:58;16.09;79.00
68912;SHT31;55953;51.650;-0.522;2023-07-24T08:23:26;16.18;79.06
68912;SHT31;55953;51.650;-0.522;2023-07-24T08:25:54;16.26;78.74
68912;SHT31;55953;51.650;-0.522;2023-07-24T08:28:23;16.29;78.78
68912;SHT31;55953;51.650;-0.522;2023-07-24T08:31:00;16.37;79.00
68912;SHT31;55953;51.650;-0.522;2023-07-24T08:33:34;16.40;78.39
68912;SHT31;55953;51.650;-0.522;2023-07-24T08:36:06;16.40;78.21
68912;SHT31;55953;51.650;-0.522;2023-07-24T08:38:35;16.40;77.61
68912;SHT31;55953;51.650;-0.522;2023-07-24T08:41:07;16.40;77.57
68912;SHT31;55953;51.650;-0.522;2023-07-24T08:43:38;16.40;77.09
68912;SHT31;55953;51.650;-0.522;2023-07-24T08:46:07;16.39;77.51
68912;SHT31;55953;51.650;-0.522;2023-07-24T08:48:40;16.38;77.39
68912;SHT31;55953;51.650;-0.522;2023-07-24T08:51:13;16.39;77.58
68912;SHT31;55953;51.650;-0.522;2023-07-24T08:53:46;16.48;77.60
68912;SHT31;55953;51.650;-0.522;2023-07-24T08:56:15;16.51;77.01
68912;SHT31;55953;51.650;-0.522;2023-07-24T08:58:43;16.54;77.14
68912;SHT31;55953;51.650;-0.522;2023-07-24T09:01:11;16.68;77.44
68912;SHT31;55953;51.650;-0.522;2023-07-24T09:03:39;16.80;76.63
68912;SHT31;55953;51.650;-0.522;2023-07-24T09:06:08;16.90;76.76
68912;SHT31;55953;51.650;-0.522;2023-07-24T09:08:36;17.04;76.08
68912;SHT31;55953;51.650;-0.522;2023-07-24T09:11:08;17.19;76.37
68912;SHT31;55953;51.650;-0.522;2023-07-24T09:13:37;17.22;74.78
68912;SHT31;55953;51.650;-0.522;2023-07-24T09:16:09;17.14;74.43
68912;SHT31;55953;51.650;-0.522;2023-07-24T09:18:51;17.08;74.84
68912;SHT31;55953;51.650;-0.522;2023-07-24T09:21:29;17.13;75.61
68912;SHT31;55953;51.650;-0.522;2023-07-24T09:24:11;17.14;76.13
68912;SHT31;55953;51.650;-0.522;2023-07-24T09:26:50;16.97;76.76
68912;SHT31;55953;51.650;-0.522;2023-07-24T09:29:31;16.82;77.52
68912;SHT31;55953;51.650;-0.522;2023-07-24T09:32:01;16.71;78.40
68912;SHT31;55953;51.650;-0.522;2023-07-24T09:34:31;16.61;78.62
68912;SHT31;55953;51.650;-0.522;2023-07-24T09:36:59;16.48;78.60
68912;SHT31;55953;51.650;-0.522;2023-07-24T09:39:27;16.33;78.70
68912;SHT31;55953;51.650;-0.522;2023-07-24T09:42:03;16.30;79.13
68912;SHT31;55953;51.650;-0.522;2023-07-24T09:44:32;16.38;79.10
68912;SHT31;55953;51.650;-0.522;2023-07-24T09:47:00;16.36;78.45
68912;SHT31;55953;51.650;-0.522;2023-07-24T09:49:50;16.17;78.76
68912;SHT31;55953;51.650;-0.522;2023-07-24T09:52:20;16.02;79.58
68912;SHT31;55953;51.650;-0.522;2023-07-24T09:57:28;16.15;79.35
68912;SHT31;55953;51.650;-0.522;2023-07-24T09:59:58;16.27;79.22
68912;SHT31;55953;51.650;-0.522;2023-07-24T10:02:27;16.44;78.55
68912;SHT31;55953;51.650;-0.522;2023-07-24T10:04:56;16.63;78.79
68912;SHT31;55953;51.650;-0.522;2023-07-24T10:07:25;16.74;77.97
68912;SHT31;55953;51.650;-0.522;2023-07-24T10:09:53;16.90;78.01
68912;SHT31;55953;51.650;-0.522;2023-07-24T10:12:22;17.04;77.07
68912;SHT31;55953;51.650;-0.522;2023-07-24T10:14:55;17.19;77.43
68912;SHT31;55953;51.650;-0.522;2023-07-24T10:17:36;17.24;76.83
68912;SHT31;55953;51.650;-0.522;2023-07-24T10:20:06;17.27;76.76
68912;SHT31;55953;51.650;-0.522;2023-07-24T10:22:42;17.43;76.94
68912;SHT31;55953;51.650;-0.522;2023-07-24T10:25:11;17.67;76.20
68912;SHT31;55953;51.650;-0.522;2023-07-24T10:27:41;17.83;75.21
68912;SHT31;55953;51.650;-0.522;2023-07-24T10:30:11;18.04;74.75
68912;SHT31;55953;51.650;-0.522;2023-07-24T10:33:03;18.15;74.12
68912;SHT31;55953;51.650;-0.522;2023-07-24T10:35:39;18.22;72.76
68912;SHT31;55953;51.650;-0.522;2023-07-24T10:38:18;18.28;72.18
68912;SHT31;55953;51.650;-0.522;2023-07-24T10:40:47;18.26;71.00
68912;SHT31;55953;51.650;-0.522;2023-07-24T10:43:18;18.09;71.10
68912;SHT31;55953;51.650;-0.522;2023-07-24T10:45:53;17.92;71.79
68912;SHT31;55953;51.650;-0.522;2023-07-24T10:48:23;17.88;71.81
68912;SHT31;55953;51.650;-0.522;2023-07-24T10:50:53;17.97;72.40
68912;SHT31;55953;51.650;-0.522;2023-07-24T10:53:22;18.07;71.40
68912;SHT31;55953;51.650;-0.522;2023-07-24T10:55:51;18.08;71.35
68912;SHT31;55953;51.650;-0.522;2023-07-24T10:58:19;18.02;71.39
68912;SHT31;55953;51.650;-0.522;2023-07-24T11:00:52;18.07;71.79
68912;SHT31;55953;51.650;-0.522;2023-07-24T11:03:20;18.00;71.77
68912;SHT31;55953;51.650;-0.522;2023-07-24T11:05:48;17.92;71.67
68912;SHT31;55953;51.650;-0.522;2023-07-24T11:08:19;17.83;70.67
68912;SHT31;55953;51.650;-0.522;2023-07-24T11:10:49;17.69;71.57
68912;SHT31;55953;51.650;-0.522;2023-07-24T11:13:19;17.56;72.46
68912;SHT31;55953;51.650;-0.522;2023-07-24T11:15:50;17.43;72.91
68912;SHT31;55953;51.650;-0.522;2023-07-24T11:18:20;17.31;73.03
68912;SHT31;55953;51.650;-0.522;2023-07-24T11:20:50;17.15;73.20
68912;SHT31;55953;51.650;-0.522;2023-07-24T11:23:22;17.01;73.23
68912;SHT31;55953;51.650;-0.522;2023-07-24T11:25:51;17.05;73.29
68912;SHT31;55953;51.650;-0.522;2023-07-24T11:28:21;17.07;73.23
68912;SHT31;55953;51.650;-0.522;2023-07-24T11:30:49;17.00;73.25
68912;SHT31;55953;51.650;-0.522;2023-07-24T11:33:19;16.97;73.58
68912;SHT31;55953;51.650;-0.522;2023-07-24T11:35:47;16.90;73.41
68912;SHT31;55953;51.650;-0.522;2023-07-24T11:38:16;16.86;74.01
68912;SHT31;55953;51.650;-0.522;2023-07-24T11:40:44;16.87;74.16
68912;SHT31;55953;51.650;-0.522;2023-07-24T11:43:19;16.92;74.27
68912;SHT31;55953;51.650;-0.522;2023-07-24T11:45:50;16.94;74.27
68912;SHT31;55953;51.650;-0.522;2023-07-24T11:48:21;16.90;74.53
68912;SHT31;55953;51.650;-0.522;2023-07-24T11:50:53;16.83;74.38
68912;SHT31;55953;51.650;-0.522;2023-07-24T11:53:23;16.72;73.89
68912;SHT31;55953;51.650;-0.522;2023-07-24T11:55:53;16.58;73.87
68912;SHT31;55953;51.650;-0.522;2023-07-24T11:58:27;16.62;73.95
68912;SHT31;55953;51.650;-0.522;2023-07-24T12:00:57;16.54;74.01
68912;SHT31;55953;51.650;-0.522;2023-07-24T12:03:25;16.50;74.20
68912;SHT31;55953;51.650;-0.522;2023-07-24T12:05:55;16.48;73.80
68912;SHT31;55953;51.650;-0.522;2023-07-24T12:08:30;16.55;73.69
68912;SHT31;55953;51.650;-0.522;2023-07-24T12:11:01;16.82;73.69
68912;SHT31;55953;51.650;-0.522;2023-07-24T12:13:30;17.14;72.61
68912;SHT31;55953;51.650;-0.522;2023-07-24T12:15:59;17.34;72.05
68912;SHT31;55953;51.650;-0.522;2023-07-24T12:18:27;17.44;70.75
68912;SHT31;55953;51.650;-0.522;2023-07-24T12:20:55;17.54;70.91
68912;SHT31;55953;51.650;-0.522;2023-07-24T12:23:23;17.70;70.08
68912;SHT31;55953;51.650;-0.522;2023-07-24T12:25:50;17.87;69.48
68912;SHT31;55953;51.650;-0.522;2023-07-24T12:28:20;18.08;69.49
68912;SHT31;55953;51.650;-0.522;2023-07-24T12:30:48;18.27;68.82
68912;SHT31;55953;51.650;-0.522;2023-07-24T12:33:16;18.49;68.88
68912;SHT31;55953;51.650;-0.522;2023-07-24T12:35:45;18.68;68.78
68912;SHT31;55953;51.650;-0.522;2023-07-24T12:38:12;18.75;68.05
68912;SHT31;55953;51.650;-0.522;2023-07-24T12:40:40;18.73;67.38
68912;SHT31;55953;51.650;-0.522;2023-07-24T12:43:09;18.63;68.00
68912;SHT31;55953;51.650;-0.522;2023-07-24T12:45:37;18.50;66.58
68912;SHT31;55953;51.650;-0.522;2023-07-24T12:48:05;18.39;66.65
68912;SHT31;55953;51.650;-0.522;2023-07-24T12:50:33;18.33;67.39
68912;SHT31;55953;51.650;-0.522;2023-07-24T12:53:01;18.38;67.22
68912;SHT31;55953;51.650;-0.522;2023-07-24T12:55:34;18.36;67.15
68912;SHT31;55953;51.650;-0.522;2023-07-24T12:58:02;18.40;67.01
68912;SHT31;55953;51.650;-0.522;2023-07-24T13:00:30;18.49;67.43
68912;SHT31;55953;51.650;-0.522;2023-07-24T13:02:59;18.58;67.28
68912;SHT31;55953;51.650;-0.522;2023-07-24T13:05:27;18.71;68.12
68912;SHT31;55953;51.650;-0.522;2023-07-24T13:07:55;18.84;67.22
68912;SHT31;55953;51.650;-0.522;2023-07-24T13:10:23;18.77;67.06
68912;SHT31;55953;51.650;-0.522;2023-07-24T13:12:51;18.84;67.77
68912;SHT31;55953;51.650;-0.522;2023-07-24T13:15:18;19.02;67.18
68912;SHT31;55953;51.650;-0.522;2023-07-24T13:17:47;19.12;66.60
68912;SHT31;55953;51.650;-0.522;2023-07-24T13:20:16;19.03;67.14
68912;SHT31;55953;51.650;-0.522;2023-07-24T13:22:44;18.92;67.30
68912;SHT31;55953;51.650;-0.522;2023-07-24T13:25:14;18.82;68.01
68912;SHT31;55953;51.650;-0.522;2023-07-24T13:27:42;18.79;68.79
68912;SHT31;55953;51.650;-0.522;2023-07-24T13:30:10;18.78;68.45
68912;SHT31;55953;51.650;-0.522;2023-07-24T13:32:38;18.71;68.85
68912;SHT31;55953;51.650;-0.522;2023-07-24T13:35:06;18.53;69.63
68912;SHT31;55953;51.650;-0.522;2023-07-24T13:37:35;18.27;69.90
68912;SHT31;55953;51.650;-0.522;2023-07-24T13:40:02;17.86;70.31
68912;SHT31;55953;51.650;-0.522;2023-07-24T13:42:31;17.53;71.45
68912;SHT31;55953;51.650;-0.522;2023-07-24T13:44:58;17.31;72.29
68912;SHT31;55953;51.650;-0.522;2023-07-24T13:47:26;17.23;72.49
68912;SHT31;55953;51.650;-0.522;2023-07-24T13:49:54;17.19;72.60
68912;SHT31;55953;51.650;-0.522;2023-07-24T13:52:22;17.27;72.65
68912;SHT31;55953;51.650;-0.522;2023-07-24T13:54:50;17.44;72.34
68912;SHT31;55953;51.650;-0.522;2023-07-24T13:57:18;17.67;72.46
68912;SHT31;55953;51.650;-0.522;2023-07-24T13:59:46;17.92;71.09
68912;SHT31;55953;51.650;-0.522;2023-07-24T14:02:13;18.07;70.53
68912;SHT31;55953;51.650;-0.522;2023-07-24T14:04:41;18.23;70.68
68912;SHT31;55953;51.650;-0.522;2023-07-24T14:07:09;18.54;70.43
68912;SHT31;55953;51.650;-0.522;2023-07-24T14:09:40;18.81;69.63
68912;SHT31;55953;51.650;-0.522;2023-07-24T14:12:10;19.07;68.77
68912;SHT31;55953;51.650;-0.522;2023-07-24T14:14:37;19.26;67.62
68912;SHT31;55953;51.650;-0.522;2023-07-24T14:17:05;19.40;66.96
68912;SHT31;55953;51.650;-0.522;2023-07-24T14:19:33;19.56;66.64
68912;SHT31;55953;51.650;-0.522;2023-07-24T14:22:01;19.62;66.20
68912;SHT31;55953;51.650;-0.522;2023-07-24T14:24:29;19.82;67.55
68912;SHT31;55953;51.650;-0.522;2023-07-24T14:26:57;20.07;65.44
68912;SHT31;55953;51.650;-0.522;2023-07-24T14:29:24;20.18;65.88
68912;SHT31;55953;51.650;-0.522;2023-07-24T14:31:52;20.29;65.84
68912;SHT31;55953;51.650;-0.522;2023-07-24T14:34:20;20.47;66.08
68912;SHT31;55953;51.650;-0.522;2023-07-24T14:36:48;20.63;64.85
68912;SHT31;55953;51.650;-0.522;2023-07-24T14:39:15;20.63;64.76
68912;SHT31;55953;51.650;-0.522;2023-07-24T14:41:43;20.54;64.29
68912;SHT31;55953;51.650;-0.522;2023-07-24T14:44:11;20.13;62.57
68912;SHT31;55953;51.650;-0.522;2023-07-24T14:46:39;19.67;63.51
68912;SHT31;55953;51.650;-0.522;2023-07-24T14:49:07;19.19;64.08
68912;SHT31;55953;51.650;-0.522;2023-07-24T14:51:34;18.69;64.65
68912;SHT31;55953;51.650;-0.522;2023-07-24T14:54:02;18.26;65.84
68912;SHT31;55953;51.650;-0.522;2023-07-24T14:56:30;17.89;66.64
68912;SHT31;55953;51.650;-0.522;2023-07-24T14:59:18;17.61;67.66
68912;SHT31;55953;51.650;-0.522;2023-07-24T15:01:45;17.37;68.62
68912;SHT31;55953;51.650;-0.522;2023-07-24T15:04:13;17.18;69.57
68912;SHT31;55953;51.650;-0.522;2023-07-24T15:06:41;17.00;69.99
68912;SHT31;55953;51.650;-0.522;2023-07-24T15:09:09;16.82;70.68
68912;SHT31;55953;51.650;-0.522;2023-07-24T15:11:38;16.72;71.65
68912;SHT31;55953;51.650;-0.522;2023-07-24T15:14:06;16.69;71.73
68912;SHT31;55953;51.650;-0.522;2023-07-24T15:16:34;16.69;72.17
68912;SHT31;55953;51.650;-0.522;2023-07-24T15:19:02;16.69;72.27
68912;SHT31;55953;51.650;-0.522;2023-07-24T15:21:29;16.72;72.41
68912;SHT31;55953;51.650;-0.522;2023-07-24T15:23:58;16.70;72.48
68912;SHT31;55953;51.650;-0.522;2023-07-24T15:26:26;16.64;73.10
68912;SHT31;55953;51.650;-0.522;2023-07-24T15:28:54;16.60;73.40
68912;SHT31;55953;51.650;-0.522;2023-07-24T15:31:21;16.66;73.14
68912;SHT31;55953;51.650;-0.522;2023-07-24T15:33:50;16.75;73.27
68912;SHT31;55953;51.650;-0.522;2023-07-24T15:36:17;16.81;73.22